Flight Track Log - Related Links

Times and Time Zones

All times are in EDT time to prevent confusion due to time zone crossing. See the N6ZQ flight status page for this flight to view local times or setup timezone preferences in your user account.

Time Position Orientation Groundspeed Altitude Reporting Facility
EDT Latitude Longitude Course Direction KTS MPH feet Rate Location/Type
Tue 07:10:53 AM 38.3667 -77.4167 123° Southeast 117 135 1,000  Level Potomac TRACON
Tue 07:11:47 AM 38.3500 -77.3833 123° Southeast 155 178 2,000 1,105 Climbing Potomac TRACON
Tue 07:12:47 AM 38.3167 -77.3833 180° South 143 165 3,100 1,150 Climbing Potomac TRACON
Tue 07:13:47 AM 38.3000 -77.4333 247° West 135 155 4,300 1,036 Climbing Potomac TRACON
Tue 07:15:06 AM 38.2814 -77.4908 248° West 145 167 5,500 943 Climbing Washington Center
Tue 07:16:07 AM 38.2639 -77.5381 245° Southwest 150 173 6,500 958 Climbing Washington Center
Tue 07:17:05 AM 38.2483 -77.5878 248° West 155 178 7,400 864 Climbing Washington Center
Tue 07:18:05 AM 38.2267 -77.6350 240° Southwest 155 178 8,200 836 Climbing Washington Center
Tue 07:19:07 AM 38.2072 -77.6819 242° Southwest 155 178 9,100 900 Climbing Washington Center
Tue 07:20:05 AM 38.1875 -77.7289 242° Southwest 155 178 10,000 500 Climbing Washington Center
Tue 07:21:07 AM 38.1658 -77.7786 241° Southwest 155 178 10,100 49 Climbing Washington Center
Tue 07:22:07 AM 38.1419 -77.8358 242° Southwest 167 192 10,100  Level Washington Center
Tue 07:23:05 AM 38.1200 -77.8933 244° Southwest 177 204 10,100  Level Washington Center
Tue 07:24:06 AM 38.0958 -77.9533 243° Southwest 187 215 10,100  Level Washington Center
Tue 07:25:07 AM 38.0739 -78.0106 244° Southwest 187 215 10,100  Level Washington Center
Tue 07:26:07 AM 38.0497 -78.0653 241° Southwest 182 209 10,100  Level Washington Center
Tue 07:27:06 AM 38.0278 -78.1250 245° Southwest 182 209 10,100  Level Washington Center
Tue 07:28:07 AM 37.9953 -78.1767 231° Southwest 175 201 10,100  Level Washington Center
Tue 07:29:05 AM 37.9669 -78.2283 235° Southwest 180 207 10,100  Level Washington Center
Tue 07:30:05 AM 37.9347 -78.2772 230° Southwest 185 213 10,100  Level Washington Center
Tue 07:31:07 AM 37.9003 -78.3233 227° Southwest 185 213 10,100  Level Washington Center
Tue 07:32:07 AM 37.8700 -78.3644 227° Southwest 185 213 10,100  Level Washington Center
Tue 07:33:07 AM 37.8378 -78.4106 229° Southwest 185 213 10,100  Level Washington Center
Tue 07:34:07 AM 37.8053 -78.4594 230° Southwest 185 213 10,100  Level Washington Center
Tue 07:35:05 AM 37.7728 -78.5081 230° Southwest 185 213 10,100  Level Washington Center
Tue 07:36:06 AM 37.7361 -78.5592 228° Southwest 185 213 10,100  Level Washington Center
Tue 07:37:07 AM 37.7036 -78.6050 228° Southwest 185 213 10,100  Level Washington Center
Tue 07:38:07 AM 37.6692 -78.6508 226° Southwest 185 213 10,100  Level Washington Center
Tue 07:39:05 AM 37.6389 -78.6969 230° Southwest 185 213 10,100  Level Washington Center
Tue 07:40:06 AM 37.6083 -78.7403 228° Southwest 185 213 10,100  Level Washington Center
Tue 07:41:07 AM 37.5758 -78.7861 228° Southwest 185 213 10,100  Level Washington Center
Tue 07:42:05 AM 37.5414 -78.8317 226° Southwest 185 213 10,100  Level Washington Center
Tue 07:43:05 AM 37.5086 -78.8800 229° Southwest 185 213 10,100  Level Washington Center
Tue 07:44:06 AM 37.4739 -78.9308 229° Southwest 185 213 10,100  Level Washington Center
Tue 07:45:04 AM 37.4392 -78.9792 228° Southwest 185 213 10,100  Level Washington Center
Tue 07:46:05 AM 37.4067 -79.0247 228° Southwest 185 213 10,100  Level Washington Center
Tue 07:47:06 AM 37.3719 -79.0728 228° Southwest 185 213 10,100  Level Washington Center
Tue 07:48:06 AM 37.3392 -79.1183 228° Southwest 185 213 10,100  Level Washington Center
Tue 07:48:55 AM 37.2964 -79.1608 218° Southwest 180 207 10,100  Level Washington Center
Tue 07:49:07 AM 37.3044 -79.1664 331° Northwest 185 213 10,100  Level Washington Center
Tue 07:50:05 AM 37.2739 -79.2094 228° Southwest 185 213 10,100  Level Washington Center
Tue 07:51:06 AM 37.2411 -79.2572 229° Southwest 185 213 10,100 -50 Level Washington Center
Tue 07:52:06 AM 37.2083 -79.3053 229° Southwest 185 213 10,000 -54 Descending Washington Center
Tue 07:52:57 AM 37.1653 -79.3553 223° Southwest 185 213 10,000  Level Washington Center
Tue 07:53:07 AM 37.1711 -79.3608 323° Northwest 185 213 10,000  Level Washington Center
Tue 07:54:07 AM 37.1383 -79.4114 231° Southwest 185 213 10,000  Level Washington Center
Tue 07:55:05 AM 37.1033 -79.4592 227° Southwest 185 213 10,000  Level Washington Center
Tue 07:56:06 AM 37.0706 -79.5094 231° Southwest 185 213 10,000  Level Washington Center
Tue 07:56:58 AM 37.0378 -79.5547 228° Southwest 186 214 10,000  Level Washington Center
Tue 07:58:07 AM 37.0069 -79.6025 231° Southwest 185 213 10,000  Level Washington Center
Tue 08:00:58 AM 36.9058 -79.7556 227° Southwest 187 215 10,000  Level Washington Center
Tue 08:13:29 AM 36.4928 -80.3486 228° Southwest 185 213 10,000  Level Atlanta Center
Tue 08:14:00 AM 36.4693 -80.3567 228° Southwest  Level FlightAware Approximate
Tue 08:14:29 AM 36.4608 -80.3939 229° Southwest 185 213 10,000  Level Atlanta Center
Tue 08:15:00 AM 36.4362 -80.4032 228° Southwest  Level FlightAware Approximate
Tue 08:15:29 AM 36.4225 -80.4394 224° Southwest 185 213 10,000  Level Atlanta Center
Tue 08:16:00 AM 36.4030 -80.4496 228° Southwest  Level FlightAware Approximate
Tue 08:16:29 AM 36.3908 -80.4925 233° Southwest 185 213 10,000  Level Atlanta Center
Tue 08:17:00 AM 36.3699 -80.4959 228° Southwest  Level FlightAware Approximate
Tue 08:17:29 AM 36.3567 -80.5403 228° Southwest 185 213 10,000  Level Atlanta Center
Tue 08:18:29 AM 36.3289 -80.5853 233° Southwest 185 213 10,000  Level Atlanta Center
Tue 08:19:29 AM 36.2947 -80.6333 229° Southwest 185 213 10,000  Level Atlanta Center
Tue 08:20:29 AM 36.2669 -80.6858 237° Southwest 190 219 10,000  Level Atlanta Center
Tue 08:21:29 AM 36.2392 -80.7411 238° Southwest 190 219 10,000  Level Atlanta Center
Tue 08:22:29 AM 36.2114 -80.7911 235° Southwest 190 219 10,000  Level Atlanta Center
Tue 08:23:29 AM 36.1817 -80.8464 236° Southwest 195 224 10,000  Level Atlanta Center
Tue 08:24:29 AM 36.1539 -80.9014 238° Southwest 195 224 10,000  Level Atlanta Center
Tue 08:25:29 AM 36.1239 -80.9567 236° Southwest 195 224 10,000  Level Atlanta Center
Tue 08:26:29 AM 36.0939 -81.0142 237° Southwest 195 224 10,000  Level Atlanta Center
Tue 08:27:29 AM 36.0639 -81.0669 235° Southwest 195 224 10,000  Level Atlanta Center
Tue 08:28:29 AM 36.0361 -81.1217 238° Southwest 195 224 10,000  Level Atlanta Center
Tue 08:29:29 AM 36.0083 -81.1767 238° Southwest 195 224 10,000  Level Atlanta Center
Tue 08:30:29 AM 35.9761 -81.2292 233° Southwest 195 224 10,000  Level Atlanta Center
Tue 08:31:29 AM 35.9481 -81.2864 239° Southwest 195 224 10,000  Level Atlanta Center
Tue 08:32:29 AM 35.9181 -81.3414 236° Southwest 195 224 10,000  Level Atlanta Center
Tue 08:33:29 AM 35.8900 -81.3961 238° Southwest 195 224 10,000  Level Atlanta Center
Tue 08:34:29 AM 35.8600 -81.4508 236° Southwest 195 224 10,000  Level Atlanta Center
Tue 08:35:29 AM 35.8319 -81.5056 238° Southwest 195 224 10,000  Level Atlanta Center
Tue 08:36:29 AM 35.8017 -81.5578 234° Southwest 195 224 10,000 50 Level Atlanta Center
Tue 08:37:29 AM 35.7714 -81.6097 234° Southwest 195 224 10,100 50 Climbing Atlanta Center
Tue 08:38:29 AM 35.7433 -81.6669 239° Southwest 195 224 10,100  Level Atlanta Center
Tue 08:39:29 AM 35.7131 -81.7214 236° Southwest 195 224 10,100 -50 Level Atlanta Center
Tue 08:40:29 AM 35.6828 -81.7761 236° Southwest 195 224 10,000 -50 Descending Atlanta Center
Tue 08:41:29 AM 35.6525 -81.8306 236° Southwest 195 224 10,000  Level Atlanta Center
Tue 08:42:29 AM 35.6200 -81.8850 234° Southwest 195 224 10,000  Level Atlanta Center
Tue 08:43:29 AM 35.5897 -81.9394 236° Southwest 195 224 10,000  Level Atlanta Center
Tue 08:44:29 AM 35.5594 -81.9939 236° Southwest 200 230 10,000  Level Atlanta Center
Tue 08:45:29 AM 35.5311 -82.0508 239° Southwest 200 230 10,000  Level Atlanta Center
Tue 08:46:29 AM 35.4986 -82.1078 235° Southwest 200 230 10,000  Level Atlanta Center
Tue 08:47:29 AM 35.4681 -82.1619 235° Southwest 200 230 10,000  Level Atlanta Center
Tue 08:48:29 AM 35.4397 -82.2161 237° Southwest 200 230 10,000  Level Atlanta Center
Tue 08:49:29 AM 35.4072 -82.2728 235° Southwest 200 230 10,000  Level Atlanta Center
Tue 08:50:29 AM 35.3725 -82.3247 231° Southwest 200 230 10,000  Level Atlanta Center
Tue 08:58:05 AM 35.1100 -82.7008 229° Southwest 201 231 10,000  Level Atlanta Center
Tue 08:59:00 AM 35.0865 -82.7204 231° Southwest  Level FlightAware Approximate
Tue 08:59:05 AM 35.0711 -82.7572 230° Southwest 201 231 10,000  Level Atlanta Center
Tue 09:00:00 AM 35.0539 -82.7679 229° Southwest  Level FlightAware Approximate
Tue 09:00:05 AM 35.0339 -82.8086 229° Southwest 201 231 10,000  Level Atlanta Center
Tue 09:01:00 AM 35.0206 -82.8145 229° Southwest  Level FlightAware Approximate
Tue 09:01:05 AM 35.0011 -82.8597 232° Southwest 201 231 10,100  Level Atlanta Center
Tue 09:02:00 AM 34.9873 -82.8612 229° Southwest  Level FlightAware Approximate
Tue 09:02:05 AM 34.9642 -82.9133 230° Southwest 201 231 10,100  Level Atlanta Center
Tue 09:03:05 AM 34.9331 -82.9569 229° Southwest 201 231 10,100  Level Atlanta Center
Tue 09:04:05 AM 34.8939 -83.0081 227° Southwest 196 226 10,100  Level Atlanta Center
Tue 09:05:05 AM 34.8567 -83.0542 225° Southwest 203 234 10,100  Level Atlanta Center
Tue 09:06:05 AM 34.8217 -83.1053 230° Southwest 198 228 10,100  Level Atlanta Center
Tue 09:07:05 AM 34.7844 -83.1536 227° Southwest 198 228 10,100  Level Atlanta Center
Tue 09:08:05 AM 34.7725 -83.2119 256° West 193 222 10,100  Level Atlanta Center
Tue 09:09:05 AM 34.7581 -83.2778 255° West 194 223 10,100  Level Atlanta Center
Tue 09:10:05 AM 34.7439 -83.3411 255° West 194 223 10,100  Level Atlanta Center
Tue 09:11:05 AM 34.7317 -83.4044 257° West 199 229 10,100  Level Atlanta Center
Tue 09:12:05 AM 34.7175 -83.4703 255° West 199 229 10,100  Level Atlanta Center
Tue 09:13:05 AM 34.7031 -83.5308 254° West 199 229 10,100  Level Atlanta Center
Tue 09:14:05 AM 34.6889 -83.5917 254° West 199 229 10,100  Level Atlanta Center
Tue 09:15:05 AM 34.6744 -83.6547 254° West 199 229 10,100  Level Atlanta Center
Tue 09:16:05 AM 34.6619 -83.7181 257° West 199 229 10,100  Level Atlanta Center
Tue 09:17:05 AM 34.6475 -83.7786 254° West 199 229 10,100  Level Atlanta Center
Tue 09:18:05 AM 34.6331 -83.8394 254° West 192 221 10,100  Level Atlanta Center
Tue 09:19:05 AM 34.6228 -83.8950 257° West 186 214 10,100 -50 Level Atlanta Center
Tue 09:20:05 AM 34.6081 -83.9531 253° West 180 207 10,000 -50 Descending Atlanta Center
Tue 09:21:05 AM 34.5936 -84.0161 254° West 185 213 10,000  Level Atlanta Center
Tue 09:22:05 AM 34.5789 -84.0717 252° West 179 206 10,000  Level Atlanta Center
Tue 09:23:05 AM 34.5664 -84.1322 256° West 185 213 10,000  Level Atlanta Center
Tue 09:24:05 AM 34.5539 -84.1900 255° West 185 213 10,000  Level Atlanta Center
Tue 09:25:05 AM 34.5392 -84.2506 254° West 185 213 10,000  Level Atlanta Center
Tue 09:26:05 AM 34.5244 -84.3136 254° West 180 207 10,000  Level Atlanta Center
Tue 09:27:05 AM 34.5117 -84.3689 254° West 185 213 10,000  Level Atlanta Center
Tue 09:28:05 AM 34.4969 -84.4269 253° West 179 206 10,000  Level Atlanta Center
Tue 09:29:05 AM 34.4739 -84.4772 241° Southwest 179 206 10,000  Level Atlanta Center
Tue 09:30:05 AM 34.4486 -84.5275 239° Southwest 173 199 10,000  Level Atlanta Center
Tue 09:31:05 AM 34.4233 -84.5778 239° Southwest 173 199 10,000  Level Atlanta Center
Tue 09:32:05 AM 34.4003 -84.6278 241° Southwest 178 205 10,000  Level Atlanta Center
Tue 09:33:05 AM 34.3769 -84.6781 241° Southwest 178 205 10,000  Level Atlanta Center
Tue 09:34:05 AM 34.3539 -84.7258 240° Southwest 178 205 10,000  Level Atlanta Center
Tue 09:35:05 AM 34.3306 -84.7758 241° Southwest 178 205 10,000  Level Atlanta Center
Tue 09:36:05 AM 34.3072 -84.8258 241° Southwest 178 205 10,000  Level Atlanta Center
Tue 09:37:05 AM 34.2861 -84.8708 240° Southwest 178 205 10,000  Level Atlanta Center
Tue 09:38:05 AM 34.2628 -84.9211 241° Southwest 178 205 10,000  Level Atlanta Center
Tue 09:39:05 AM 34.2375 -84.9686 237° Southwest 178 205 10,000  Level Atlanta Center
Tue 09:40:05 AM 34.2142 -85.0211 242° Southwest 178 205 10,000  Level Atlanta Center
Tue 09:41:05 AM 34.1906 -85.0708 240° Southwest 178 205 10,000  Level Atlanta Center
Tue 09:42:05 AM 34.1653 -85.1183 237° Southwest 178 205 10,000  Level Atlanta Center
Tue 09:43:05 AM 34.1272 -85.1556 219° Southwest 173 199 10,000  Level Atlanta Center
Tue 09:44:05 AM 34.0792 -85.1750 199° South 173 199 10,000  Level Atlanta Center
Tue 09:45:05 AM 34.0350 -85.2019 207° Southwest 179 206 10,000  Level Atlanta Center
Tue 09:46:05 AM 33.9867 -85.2314 207° Southwest 179 206 10,000  Level Atlanta Center
Tue 09:47:05 AM 33.9428 -85.2583 207° Southwest 179 206 10,000  Level Atlanta Center
Tue 09:48:05 AM 33.8964 -85.2850 206° Southwest 179 206 10,000  Level Atlanta Center
Tue 09:49:05 AM 33.8525 -85.3119 207° Southwest 179 206 10,000  Level Atlanta Center
Tue 09:50:05 AM 33.8103 -85.3389 208° Southwest 179 206 10,000  Level Atlanta Center
Tue 09:51:05 AM 33.7661 -85.3681 209° Southwest 179 206 10,000  Level Atlanta Center
Tue 09:52:05 AM 33.7219 -85.3975 209° Southwest 179 206 10,000  Level Atlanta Center
Tue 09:53:05 AM 33.6781 -85.4242 207° Southwest 179 206 10,000  Level Atlanta Center
Tue 09:54:05 AM 33.6339 -85.4508 207° Southwest 179 206 10,000  Level Atlanta Center
Tue 09:55:05 AM 33.5875 -85.4803 208° Southwest 179 206 10,000  Level Atlanta Center
Tue 09:56:05 AM 33.5433 -85.5069 207° Southwest 179 206 10,000  Level Atlanta Center
Tue 09:57:05 AM 33.5056 -85.5311 208° Southwest 179 206 10,000  Level Atlanta Center
Tue 09:58:05 AM 33.4614 -85.5578 207° Southwest 179 206 10,000  Level Atlanta Center
Tue 09:59:05 AM 33.4192 -85.5844 208° Southwest 179 206 10,000  Level Atlanta Center
Tue 10:00:05 AM 33.3731 -85.6133 208° Southwest 179 206 10,000  Level Atlanta Center
Tue 10:01:05 AM 33.3267 -85.6450 210° Southwest 179 206 10,000  Level Atlanta Center
Tue 10:02:05 AM 33.2825 -85.6664 202° Southwest 184 212 10,000  Level Atlanta Center
Tue 10:03:05 AM 33.2258 -85.7025 208° Southwest 196 226 10,000  Level Atlanta Center
Tue 10:04:05 AM 33.1794 -85.7314 208° Southwest 196 226 10,000  Level Atlanta Center
Tue 10:05:05 AM 33.1311 -85.7603 207° Southwest 196 226 10,000  Level Atlanta Center
Tue 10:05:59 AM 33.0767 -85.7717 190° South 189 217 10,000  Level Atlanta Center
Tue 10:07:05 AM 33.0383 -85.8181 225° Southwest 196 226 10,000  Level Atlanta Center
Tue 10:08:05 AM 32.9942 -85.8467 209° Southwest 196 226 10,000  Level Atlanta Center
Tue 10:09:05 AM 32.9478 -85.8756 208° Southwest 196 226 10,000  Level Atlanta Center
Tue 10:09:59 AM 32.8933 -85.8917 194° South 188 216 10,000  Level Atlanta Center
Tue 10:11:05 AM 32.8531 -85.9328 221° Southwest 196 226 10,000  Level Atlanta Center
Tue 10:12:05 AM 32.8067 -85.9617 208° Southwest 196 226 10,000  Level Atlanta Center
Tue 10:13:05 AM 32.7581 -85.9925 208° Southwest 196 226 10,000  Level Atlanta Center
Tue 10:13:59 AM 32.7056 -86.0136 199° South 196 226 10,000  Level Atlanta Center
Tue 10:15:05 AM 32.6633 -86.0522 218° Southwest 201 231 10,000  Level Atlanta Center
Tue 10:17:36 AM 32.5325 -86.1231 205° Southwest 199 229 10,000  Level Atlanta Center
Tue 10:21:37 AM 32.3364 -86.2464 229° Southwest 206 237 10,000  Level Atlanta Center
Tue 10:25:37 AM 32.1625 -86.3917 234° Southwest 192 221 10,000  Level Atlanta Center
Tue 10:26:00 AM 32.1739 -86.3738 229° Southwest  Level FlightAware Approximate
Tue 10:26:17 AM 32.1494 -86.4183 240° Southwest 193 222 10,000  Level Atlanta Center
Tue 10:27:17 AM 32.1108 -86.4689 228° Southwest 192 221 10,000  Level Atlanta Center
Tue 10:28:17 AM 32.0808 -86.5147 232° Southwest 192 221 10,000  Level Atlanta Center
Tue 10:29:17 AM 32.0464 -86.5603 228° Southwest 192 221 10,000  Level Atlanta Center
Tue 10:30:00 AM 32.0080 -86.5546 229° Southwest  Level Estimated
Tue 10:30:17 AM 32.0142 -86.6058 230° Southwest 176 203 10,000  Level Atlanta Center
Tue 10:31:00 AM 31.9686 -86.5909 234° Southwest  Level Estimated
Tue 10:31:17 AM 31.9800 -86.6514 229° Southwest 183 211 10,000  Level Atlanta Center
Tue 10:32:17 AM 31.9475 -86.6969 230° Southwest 183 211 10,000  Level Atlanta Center
Tue 10:33:17 AM 31.9133 -86.7400 227° Southwest 188 216 10,000  Level Atlanta Center
Tue 10:34:17 AM 31.8808 -86.7878 231° Southwest 188 216 10,000  Level Atlanta Center
Tue 10:35:17 AM 31.8464 -86.8333 228° Southwest 188 216 10,000  Level Atlanta Center
Tue 10:36:17 AM 31.8122 -86.8786 228° Southwest 188 216 10,000  Level Atlanta Center
Tue 10:37:17 AM 31.7797 -86.9217 228° Southwest 188 216 10,000  Level Atlanta Center
Tue 10:38:17 AM 31.7453 -86.9694 230° Southwest 188 216 10,000  Level Atlanta Center
Tue 10:39:17 AM 31.7131 -87.0122 228° Southwest 188 216 10,000  Level Atlanta Center
Tue 10:40:17 AM 31.6847 -87.0578 234° Southwest 188 216 10,000  Level Atlanta Center
Tue 10:41:17 AM 31.6544 -87.1031 232° Southwest 188 216 10,000  Level Atlanta Center
Tue 10:42:17 AM 31.6178 -87.1481 226° Southwest 188 216 10,000  Level Atlanta Center
Tue 10:43:17 AM 31.5853 -87.1933 230° Southwest 188 216 10,000  Level Atlanta Center
Tue 10:44:17 AM 31.5489 -87.2358 225° Southwest 188 216 10,000 67 Level Atlanta Center
Tue 10:44:47 AM 31.5283 -87.2581 223° Southwest 183 211 10,100 65 Climbing Houston Center
Tue 10:45:49 AM 31.4950 -87.3025 229° Southwest 183 211 10,100  Level Houston Center
Tue 10:46:52 AM 31.4611 -87.3475 229° Southwest 183 211 10,100 -48 Level Houston Center
Tue 10:47:54 AM 31.4200 -87.3850 218° Southwest 183 211 10,000 -48 Descending Houston Center
Tue 10:48:56 AM 31.3681 -87.4281 215° Southwest 186 214 10,000  Level Houston Center
Tue 10:49:58 AM 31.3256 -87.4647 216° Southwest 188 216 10,000  Level Houston Center
Tue 10:51:00 AM 31.2833 -87.4981 214° Southwest 188 216 10,000  Level Houston Center
Tue 10:52:02 AM 31.2414 -87.5344 217° Southwest 187 215 10,000  Level Houston Center
Tue 10:53:05 AM 31.1992 -87.5703 216° Southwest 187 215 10,000  Level Houston Center
Tue 10:54:07 AM 31.1561 -87.6053 215° Southwest 187 215 10,000  Level Houston Center
Tue 10:55:09 AM 31.1047 -87.6492 216° Southwest 187 215 10,000 -194 Level Houston Center
Tue 10:56:11 AM 31.0608 -87.6864 216° Southwest 191 220 9,600 -484 Descending Houston Center
Tue 10:57:13 AM 31.0142 -87.7256 216° Southwest 203 234 9,000 -484 Descending Houston Center
Tue 10:58:15 AM 30.9667 -87.7636 214° Southwest 203 234 8,600 -432 Descending Houston Center
Tue 10:59:18 AM 30.9200 -87.8019 215° Southwest 205 236 8,100 -336 Descending Houston Center
Tue 11:00:20 AM 30.8747 -87.8392 215° Southwest 202 232 7,900 -484 Descending Houston Center
Tue 11:01:22 AM 30.8197 -87.8858 216° Southwest 202 232 7,100 -629 Descending Houston Center
Tue 11:02:24 AM 30.7717 -87.9247 215° Southwest 204 235 6,600 -581 Descending Houston Center
Tue 11:03:26 AM 30.7253 -87.9647 217° Southwest 205 236 5,900 -672 Descending Houston Center
Tue 11:04:29 AM 30.6783 -88.0025 215° Southwest 205 236 5,200 -624 Descending Houston Center
Tue 11:05:31 AM 30.6325 -88.0403 215° Southwest 205 236 4,600 -532 Descending Houston Center
Tue 11:06:33 AM 30.5814 -88.0611 199° South 204 235 4,100 -484 Descending Houston Center
Tue 11:07:35 AM 30.5175 -88.0733 189° South 198 228 3,600 -484 Descending Houston Center
Tue 11:08:37 AM 30.4656 -88.0850 191° South 195 224 3,100 -484 Descending Houston Center
Tue 11:09:39 AM 30.4139 -88.0956 190° South 193 222 2,600 -484 Descending Houston Center

Login

Don't have an account? Register now (free) for customized features, flight alerts, and more!